createdAt,value
2018-11-13T00:01:14.811Z,10.77
2018-11-13T00:03:45.571Z,11.33
2018-11-13T00:06:17.376Z,10.70
2018-11-13T00:08:48.740Z,11.30
2018-11-13T00:11:19.827Z,12.20
2018-11-13T00:13:50.849Z,12.30
2018-11-13T00:16:21.772Z,11.43
2018-11-13T00:18:52.941Z,10.83
2018-11-13T00:21:23.601Z,10.93
2018-11-13T00:23:54.899Z,12.13
2018-11-13T00:26:26.136Z,12.23
2018-11-13T00:28:56.914Z,11.80
2018-11-13T00:31:27.897Z,11.80
2018-11-13T00:33:59.011Z,11.57
2018-11-13T00:36:30.327Z,11.97
2018-11-13T00:39:01.412Z,11.33
2018-11-13T00:41:32.234Z,11.63
2018-11-13T00:44:03.118Z,10.60
2018-11-13T00:46:34.268Z,11.83
2018-11-13T00:49:05.328Z,10.67
2018-11-13T00:51:37.270Z,11.13
2018-11-13T00:54:08.249Z,11.07
2018-11-13T00:56:39.185Z,11.27
2018-11-13T00:59:09.913Z,11.67
2018-11-13T01:01:41.199Z,11.33
2018-11-13T01:04:12.178Z,10.63
2018-11-13T01:06:42.913Z,11.70
2018-11-13T01:09:13.657Z,10.53
2018-11-13T01:11:44.609Z,12.10
2018-11-13T01:14:15.805Z,11.17
2018-11-13T01:16:46.911Z,11.10
2018-11-13T01:19:17.713Z,11.93
2018-11-13T01:21:48.460Z,11.37
2018-11-13T01:24:19.630Z,11.27
2018-11-13T01:26:50.520Z,11.17
2018-11-13T01:29:21.220Z,10.33
2018-11-13T01:31:52.010Z,12.37
2018-11-13T01:34:23.078Z,11.80
2018-11-13T01:36:53.827Z,11.80
2018-11-13T01:39:24.818Z,12.77
2018-11-13T01:41:56.029Z,11.70
2018-11-13T01:44:26.902Z,12.33
2018-11-13T01:46:57.814Z,11.57
2018-11-13T01:49:29.068Z,11.73
2018-11-13T01:52:00.446Z,12.70
2018-11-13T01:54:31.592Z,12.93
2018-11-13T01:57:02.659Z,11.67
2018-11-13T01:59:34.041Z,12.33
2018-11-13T02:02:05.135Z,12.10
2018-11-13T02:04:37.194Z,12.10
2018-11-13T02:07:08.158Z,13.20
2018-11-13T02:09:39.468Z,12.57
2018-11-13T02:12:10.233Z,12.90
2018-11-13T02:14:41.014Z,11.80
2018-11-13T02:17:13.206Z,11.53
2018-11-13T02:19:44.391Z,10.83
2018-11-13T02:22:15.798Z,12.27
2018-11-13T02:24:48.059Z,11.30
2018-11-13T02:27:19.124Z,10.20
2018-11-13T02:29:50.218Z,10.43
2018-11-13T02:32:21.277Z,9.70
2018-11-13T02:34:52.569Z,10.27
2018-11-13T02:37:23.394Z,10.03
2018-11-13T02:39:54.546Z,9.33
2018-11-13T02:42:25.279Z,8.97
2018-11-13T02:44:56.106Z,9.33
2018-11-13T02:47:26.577Z,9.27
2018-11-13T02:49:57.354Z,8.87
2018-11-13T02:52:29.426Z,7.63
2018-11-13T02:55:00.277Z,8.13
2018-11-13T02:57:30.828Z,7.83
2018-11-13T03:00:01.595Z,7.07
2018-11-13T03:02:31.943Z,7.47
2018-11-13T03:05:02.886Z,8.73
2018-11-13T03:07:33.744Z,7.77
2018-11-13T03:10:05.686Z,7.33
2018-11-13T03:12:36.388Z,7.80
2018-11-13T03:15:09.045Z,7.40
2018-11-13T03:17:39.927Z,8.03
2018-11-13T03:20:13.741Z,7.33
2018-11-13T03:22:45.126Z,6.83
2018-11-13T03:25:17.618Z,7.13
2018-11-13T03:27:48.349Z,6.70
2018-11-13T03:30:25.911Z,6.73
2018-11-13T03:32:57.049Z,6.30
2018-11-13T03:35:28.327Z,6.53
2018-11-13T03:37:59.231Z,6.30
2018-11-13T03:40:30.063Z,6.00
2018-11-13T03:43:00.801Z,5.20
2018-11-13T03:45:31.768Z,6.83
2018-11-13T03:48:02.680Z,5.90
2018-11-13T03:50:33.441Z,5.33
2018-11-13T03:53:04.785Z,5.67
2018-11-13T03:55:35.574Z,6.67
2018-11-13T03:58:07.296Z,5.70
2018-11-13T04:00:38.001Z,5.27
2018-11-13T04:03:09.201Z,5.03
2018-11-13T04:05:40.141Z,5.20
2018-11-13T04:08:10.970Z,5.13
2018-11-13T04:10:41.944Z,4.77
2018-11-13T04:13:13.218Z,5.07
2018-11-13T04:15:44.133Z,4.70
2018-11-13T04:18:15.168Z,4.93
2018-11-13T04:20:46.025Z,5.13
2018-11-13T04:23:16.788Z,4.80
2018-11-13T04:25:47.969Z,4.87
2018-11-13T04:28:18.744Z,4.20
2018-11-13T04:30:49.669Z,6.57
2018-11-13T04:33:20.625Z,4.20
2018-11-13T04:35:51.923Z,3.60
2018-11-13T04:38:22.900Z,3.77
2018-11-13T04:40:53.999Z,3.30
2018-11-13T04:43:24.645Z,2.70
2018-11-13T04:45:55.710Z,3.30
2018-11-13T04:48:26.645Z,3.00
2018-11-13T04:50:57.797Z,3.43
2018-11-13T04:53:28.698Z,3.27
2018-11-13T04:55:59.741Z,2.87
2018-11-13T04:58:30.647Z,3.10
2018-11-13T05:01:02.439Z,3.60
2018-11-13T05:03:33.249Z,3.77
2018-11-13T05:06:03.925Z,4.07
2018-11-13T05:08:34.747Z,3.83
2018-11-13T05:11:06.222Z,4.47
2018-11-13T05:13:37.045Z,4.20
2018-11-13T05:16:08.273Z,3.93
2018-11-13T05:18:39.630Z,3.70
2018-11-13T05:21:10.514Z,3.90
2018-11-13T05:23:41.104Z,3.53
2018-11-13T05:26:12.179Z,3.47
2018-11-13T05:28:43.312Z,3.97
2018-11-13T05:31:17.289Z,3.77
2018-11-13T05:33:48.074Z,3.67
2018-11-13T05:36:19.657Z,3.80
2018-11-13T05:38:50.671Z,3.63
2018-11-13T05:41:22.470Z,3.63
2018-11-13T05:43:53.377Z,4.00
2018-11-13T05:46:25.308Z,4.13
2018-11-13T05:48:55.973Z,3.77
2018-11-13T05:51:26.892Z,3.20
2018-11-13T05:53:57.705Z,3.30
2018-11-13T05:56:29.210Z,3.57
2018-11-13T05:59:00.639Z,2.67
2018-11-13T06:01:31.003Z,2.97
2018-11-13T06:04:02.397Z,3.07
2018-11-13T06:06:33.153Z,2.93
2018-11-13T06:09:04.660Z,2.80
2018-11-13T06:11:37.617Z,2.87
2018-11-13T06:14:09.176Z,3.00
2018-11-13T06:16:40.332Z,2.77
2018-11-13T06:19:11.850Z,2.93
2018-11-13T06:21:42.668Z,2.97
2018-11-13T06:24:13.599Z,2.67
2018-11-13T06:26:44.322Z,2.47
2018-11-13T06:29:15.261Z,2.97
2018-11-13T06:31:45.966Z,2.20
2018-11-13T06:34:16.750Z,2.53
2018-11-13T06:36:47.696Z,2.60
2018-11-13T06:39:18.664Z,2.77
2018-11-13T06:41:49.433Z,2.23
2018-11-13T06:44:20.173Z,2.03
2018-11-13T06:46:51.398Z,2.10
2018-11-13T06:49:22.328Z,2.20
2018-11-13T06:51:53.444Z,2.20
2018-11-13T06:54:41.183Z,2.40
2018-11-13T06:57:12.242Z,2.00
2018-11-13T06:59:43.064Z,2.20
2018-11-13T07:02:13.759Z,2.17
2018-11-13T07:04:45.179Z,2.07
2018-11-13T07:07:15.902Z,1.97
2018-11-13T07:09:46.546Z,1.90
2018-11-13T07:12:17.638Z,2.43
2018-11-13T07:14:50.342Z,2.23
2018-11-13T07:17:22.034Z,2.07
2018-11-13T07:19:53.133Z,1.83
2018-11-13T07:22:24.630Z,10.73
2018-11-13T07:24:55.447Z,3.13
2018-11-13T07:27:26.240Z,2.37
2018-11-13T07:32:34.981Z,1.97
2018-11-13T07:35:07.921Z,2.03
2018-11-13T07:37:39.298Z,2.13
2018-11-13T07:40:10.925Z,2.30
2018-11-13T07:42:42.084Z,2.10
2018-11-13T07:45:14.189Z,2.40
2018-11-13T07:47:46.598Z,2.00
2018-11-13T07:50:17.833Z,2.40
2018-11-13T07:52:48.686Z,2.90
2018-11-13T07:55:19.854Z,2.40
2018-11-13T07:57:50.545Z,2.70
2018-11-13T08:00:23.667Z,2.67
2018-11-13T08:02:56.380Z,2.73
2018-11-13T08:05:27.189Z,2.30
2018-11-13T08:07:58.095Z,2.47
2018-11-13T08:10:28.762Z,2.40
2018-11-13T08:12:59.725Z,2.67
2018-11-13T08:15:30.849Z,2.60
2018-11-13T08:18:01.661Z,2.53
2018-11-13T08:20:31.996Z,2.43
2018-11-13T08:23:02.815Z,2.60
2018-11-13T08:25:33.616Z,2.30
2018-11-13T08:28:04.604Z,2.67
2018-11-13T08:30:35.649Z,2.50
2018-11-13T08:33:06.913Z,2.40
2018-11-13T08:35:37.923Z,2.43
2018-11-13T08:38:09.060Z,2.70
2018-11-13T08:40:40.281Z,2.63
2018-11-13T08:43:11.616Z,2.40
2018-11-13T08:45:42.396Z,2.47
2018-11-13T08:48:13.152Z,2.97
2018-11-13T08:50:43.983Z,2.47
2018-11-13T08:53:15.324Z,3.23
2018-11-13T08:55:46.210Z,2.67
2018-11-13T08:58:17.210Z,2.50
2018-11-13T09:00:48.727Z,2.33
2018-11-13T09:03:20.063Z,2.07
2018-11-13T09:05:51.039Z,2.60
2018-11-13T09:08:21.782Z,2.70
2018-11-13T09:10:52.469Z,3.00
2018-11-13T09:13:23.319Z,2.20
2018-11-13T09:15:55.033Z,2.63
2018-11-13T09:18:25.722Z,2.57
2018-11-13T09:20:57.132Z,2.43
2018-11-13T09:23:28.033Z,2.27
2018-11-13T09:25:58.842Z,2.47
2018-11-13T09:28:29.658Z,2.50
2018-11-13T09:31:00.353Z,2.20
2018-11-13T09:33:31.139Z,2.10
2018-11-13T09:36:02.408Z,2.30
2018-11-13T09:38:33.267Z,2.30
2018-11-13T09:41:04.385Z,1.90
2018-11-13T09:43:38.046Z,2.30
2018-11-13T09:46:09.463Z,2.23
2018-11-13T09:48:40.405Z,2.10
2018-11-13T09:51:11.359Z,1.80
2018-11-13T09:53:52.136Z,2.33
2018-11-13T09:56:23.106Z,2.80
2018-11-13T09:58:54.391Z,2.00
2018-11-13T10:01:26.023Z,2.20
2018-11-13T10:03:57.445Z,1.90
2018-11-13T10:06:27.874Z,2.17
2018-11-13T10:08:58.709Z,1.73
2018-11-13T10:11:29.518Z,1.80
2018-11-13T10:14:00.426Z,1.80
2018-11-13T10:16:31.202Z,2.07
2018-11-13T10:19:02.116Z,1.80
2018-11-13T10:21:33.535Z,1.40
2018-11-13T10:24:04.868Z,1.70
2018-11-13T10:26:35.771Z,1.77
2018-11-13T10:29:07.059Z,1.80
2018-11-13T10:31:37.960Z,2.00
2018-11-13T10:34:08.698Z,1.70
2018-11-13T10:36:39.717Z,1.63
2018-11-13T10:39:11.919Z,1.87
2018-11-13T10:41:43.223Z,1.60
2018-11-13T10:44:14.421Z,1.23
2018-11-13T10:46:45.125Z,1.43
2018-11-13T10:49:16.078Z,1.37
2018-11-13T10:51:47.010Z,2.00
2018-11-13T10:54:18.313Z,1.73
2018-11-13T10:56:49.593Z,1.60
2018-11-13T10:59:20.375Z,1.33
2018-11-13T11:01:56.313Z,1.50
2018-11-13T11:04:32.654Z,1.30
2018-11-13T11:07:04.211Z,1.20
2018-11-13T11:09:35.003Z,1.70
2018-11-13T11:12:06.934Z,1.67
2018-11-13T11:14:37.689Z,1.53
2018-11-13T11:17:09.362Z,1.43
2018-11-13T11:19:40.513Z,1.33
2018-11-13T11:22:11.327Z,1.70
2018-11-13T11:24:42.198Z,1.30
2018-11-13T11:27:12.909Z,2.17
2018-11-13T11:29:43.819Z,1.10
2018-11-13T11:32:14.839Z,1.80
2018-11-13T11:34:45.979Z,1.50
2018-11-13T11:37:17.262Z,1.40
2018-11-13T11:39:49.406Z,1.73
2018-11-13T11:42:20.318Z,1.90
2018-11-13T11:44:51.359Z,1.73
2018-11-13T11:47:22.195Z,1.60
2018-11-13T11:49:52.869Z,1.60
2018-11-13T11:52:24.477Z,1.60
2018-11-13T11:54:55.465Z,1.53
2018-11-13T11:57:26.451Z,1.60
2018-11-13T11:59:57.540Z,1.70
2018-11-13T12:02:28.576Z,1.80
2018-11-13T12:05:00.796Z,2.20
2018-11-13T12:07:31.830Z,1.80
2018-11-13T12:10:02.829Z,2.00
2018-11-13T12:12:33.591Z,1.70
2018-11-13T12:15:04.736Z,1.40
2018-11-13T12:17:35.932Z,1.30
2018-11-13T12:20:09.322Z,1.50
2018-11-13T12:22:40.045Z,1.23
2018-11-13T12:25:14.254Z,1.60
2018-11-13T12:27:45.211Z,1.30
2018-11-13T12:30:22.668Z,1.40
2018-11-13T12:32:53.858Z,1.50
2018-11-13T12:35:24.688Z,1.43
2018-11-13T12:37:55.765Z,1.30
2018-11-13T12:40:26.581Z,1.23
2018-11-13T12:42:57.511Z,1.43
2018-11-13T12:45:28.329Z,1.40
2018-11-13T12:47:59.482Z,1.20
2018-11-13T12:50:35.554Z,1.50
2018-11-13T12:53:06.553Z,2.03
2018-11-13T12:55:37.508Z,1.67
2018-11-13T12:58:08.531Z,1.00
2018-11-13T13:00:39.496Z,1.10
2018-11-13T13:03:10.373Z,1.20
2018-11-13T13:05:41.228Z,1.20
2018-11-13T13:08:11.685Z,1.30
2018-11-13T13:10:42.530Z,1.20
2018-11-13T13:13:13.084Z,1.23
2018-11-13T13:15:44.629Z,1.17
2018-11-13T13:18:15.589Z,1.00
2018-11-13T13:20:46.868Z,1.30
2018-11-13T13:23:17.746Z,1.43
2018-11-13T13:25:48.585Z,1.37
2018-11-13T13:28:19.540Z,1.20
2018-11-13T13:30:50.312Z,1.60
2018-11-13T13:33:21.046Z,1.07
2018-11-13T13:35:58.875Z,0.93
2018-11-13T13:38:30.980Z,1.00
2018-11-13T13:41:03.176Z,1.07
2018-11-13T13:43:35.167Z,1.30
2018-11-13T13:46:06.673Z,1.00
2018-11-13T13:48:37.399Z,1.37
2018-11-13T13:51:08.348Z,1.50
2018-11-13T13:53:39.629Z,1.40
2018-11-13T13:56:10.748Z,1.13
2018-11-13T13:58:41.635Z,1.23
2018-11-13T14:01:12.586Z,1.27
2018-11-13T14:03:43.568Z,1.20
2018-11-13T14:06:15.350Z,1.30
2018-11-13T14:08:46.255Z,1.40
2018-11-13T14:11:17.010Z,0.97
2018-11-13T14:13:48.442Z,1.40
2018-11-13T14:16:19.300Z,1.13
2018-11-13T14:18:50.485Z,1.50
2018-11-13T14:21:21.270Z,1.30
2018-11-13T14:23:53.262Z,1.37
2018-11-13T14:26:24.773Z,1.40
2018-11-13T14:28:55.744Z,1.27
2018-11-13T14:31:27.826Z,1.10
2018-11-13T14:33:58.778Z,1.47
2018-11-13T14:36:29.920Z,1.30
2018-11-13T14:39:00.757Z,1.33
2018-11-13T14:41:31.634Z,1.67
2018-11-13T14:44:02.674Z,1.20
2018-11-13T14:46:33.625Z,1.20
2018-11-13T14:49:05.136Z,1.00
2018-11-13T14:51:36.327Z,1.00
2018-11-13T14:54:07.039Z,1.17
2018-11-13T14:56:37.922Z,1.10
2018-11-13T14:59:09.436Z,1.50
2018-11-13T15:01:40.868Z,1.20
2018-11-13T15:04:12.725Z,1.57
2018-11-13T15:06:43.612Z,1.43
2018-11-13T15:09:14.535Z,2.03
2018-11-13T15:11:45.382Z,1.27
2018-11-13T15:14:16.141Z,1.90
2018-11-13T15:16:46.993Z,1.67
2018-11-13T15:19:17.973Z,1.73
2018-11-13T15:21:48.971Z,1.33
2018-11-13T15:24:19.907Z,1.37
2018-11-13T15:26:51.817Z,1.40
2018-11-13T15:29:23.179Z,1.77
2018-11-13T15:31:54.641Z,1.63
2018-11-13T15:34:26.509Z,1.30
2018-11-13T15:36:57.313Z,1.73
2018-11-13T15:39:29.591Z,1.70
2018-11-13T15:42:00.364Z,1.97
2018-11-13T15:44:31.373Z,2.47
2018-11-13T15:47:03.639Z,2.10
2018-11-13T15:49:34.517Z,1.67
2018-11-13T15:52:05.893Z,2.27
2018-11-13T15:54:38.033Z,1.73
2018-11-13T15:57:08.984Z,1.70
2018-11-13T15:59:39.774Z,1.60
2018-11-13T16:02:10.786Z,1.27
2018-11-13T16:04:42.008Z,1.67
2018-11-13T16:07:14.667Z,1.40
2018-11-13T16:09:45.599Z,1.70
2018-11-13T16:12:16.617Z,1.43
2018-11-13T16:14:47.585Z,1.30
2018-11-13T16:17:18.428Z,1.37
2018-11-13T16:19:49.473Z,1.30
2018-11-13T16:22:20.299Z,1.30
2018-11-13T16:24:51.155Z,1.07
2018-11-13T16:27:22.016Z,1.30
2018-11-13T16:29:53.157Z,1.70
2018-11-13T16:32:24.726Z,1.50
2018-11-13T16:34:55.675Z,1.77
2018-11-13T16:37:26.706Z,1.47
2018-11-13T16:39:58.008Z,1.67
2018-11-13T16:42:28.805Z,2.10
2018-11-13T16:44:59.700Z,1.83
2018-11-13T16:47:30.614Z,1.83
2018-11-13T16:50:01.478Z,1.27
2018-11-13T16:52:31.941Z,1.13
2018-11-13T16:55:02.805Z,1.70
2018-11-13T16:57:33.659Z,1.40
2018-11-13T17:00:06.568Z,2.10
2018-11-13T17:02:37.741Z,1.90
2018-11-13T17:05:13.395Z,1.63
2018-11-13T17:07:44.990Z,2.37
2018-11-13T17:10:20.841Z,1.77
2018-11-13T17:12:52.614Z,1.53
2018-11-13T17:15:24.988Z,1.60
2018-11-13T17:17:56.528Z,1.33
2018-11-13T17:20:27.882Z,1.33
2018-11-13T17:22:59.050Z,1.53
2018-11-13T17:25:34.458Z,1.97
2018-11-13T17:28:05.858Z,1.73
2018-11-13T17:30:37.144Z,1.80
2018-11-13T17:33:10.632Z,8.63
2018-11-13T17:35:41.849Z,3.30
2018-11-13T17:38:12.949Z,2.20
2018-11-13T17:40:44.262Z,2.03
2018-11-13T17:43:15.327Z,1.70
2018-11-13T17:45:46.269Z,1.50
2018-11-13T17:48:17.066Z,1.90
2018-11-13T17:50:47.962Z,1.90
2018-11-13T17:53:19.618Z,1.90
2018-11-13T17:55:50.656Z,1.77
2018-11-13T17:58:21.415Z,2.03
2018-11-13T18:00:52.814Z,2.33
2018-11-13T18:03:23.852Z,2.03
2018-11-13T18:05:54.898Z,1.90
2018-11-13T18:08:25.916Z,1.93
2018-11-13T18:10:56.881Z,1.70
2018-11-13T18:13:27.966Z,2.10
2018-11-13T18:15:59.042Z,2.40
2018-11-13T18:18:30.103Z,1.80
2018-11-13T18:21:00.884Z,2.10
2018-11-13T18:23:31.629Z,1.93
2018-11-13T18:26:02.845Z,2.00
2018-11-13T18:28:34.329Z,2.90
2018-11-13T18:31:05.742Z,2.67
2018-11-13T18:33:36.776Z,2.50
2018-11-13T18:36:08.715Z,1.97
2018-11-13T18:38:40.031Z,2.77
2018-11-13T18:41:11.732Z,2.87
2018-11-13T18:43:42.602Z,2.27
2018-11-13T18:46:13.670Z,2.20
2018-11-13T18:48:45.885Z,2.60
2018-11-13T18:51:17.145Z,2.23
2018-11-13T18:53:48.315Z,2.30
2018-11-13T18:56:19.136Z,2.07
2018-11-13T18:58:50.144Z,1.90
2018-11-13T19:01:21.200Z,2.13
2018-11-13T19:03:52.446Z,2.27
2018-11-13T19:06:23.748Z,2.17
2018-11-13T19:08:55.204Z,2.67
2018-11-13T19:11:26.450Z,2.60
2018-11-13T19:13:57.958Z,2.10
2018-11-13T19:16:28.846Z,2.20
2018-11-13T19:19:00.084Z,2.60
2018-11-13T19:21:31.285Z,2.20
2018-11-13T19:24:02.316Z,2.27
2018-11-13T19:26:33.158Z,2.20
2018-11-13T19:29:04.229Z,2.37
2018-11-13T19:31:35.363Z,1.97
2018-11-13T19:34:06.594Z,2.20
2018-11-13T19:36:37.578Z,1.90
2018-11-13T19:39:11.973Z,1.80
2018-11-13T19:41:43.331Z,2.07
2018-11-13T19:44:14.269Z,2.00
2018-11-13T19:46:45.073Z,2.13
2018-11-13T19:49:16.243Z,2.23
2018-11-13T19:51:47.244Z,2.53
2018-11-13T19:54:18.276Z,1.83
2018-11-13T19:56:49.533Z,1.97
2018-11-13T19:59:20.550Z,1.80
2018-11-13T20:01:51.604Z,2.30
2018-11-13T20:04:22.430Z,2.10
2018-11-13T20:06:53.595Z,2.20
2018-11-13T20:09:25.305Z,2.60
2018-11-13T20:11:56.834Z,2.20
2018-11-13T20:14:28.170Z,1.80
2018-11-13T20:16:59.145Z,2.40
2018-11-13T20:19:30.469Z,2.20
2018-11-13T20:22:01.812Z,2.53
2018-11-13T20:24:33.111Z,2.30
2018-11-13T20:27:04.534Z,2.07
2018-11-13T20:29:35.611Z,1.90
2018-11-13T20:32:06.920Z,1.80
2018-11-13T20:34:38.412Z,2.80
2018-11-13T20:37:09.709Z,2.23
2018-11-13T20:39:40.755Z,2.10
2018-11-13T20:42:11.828Z,1.77
2018-11-13T20:44:42.381Z,2.30
2018-11-13T20:47:13.893Z,2.03
2018-11-13T20:49:45.189Z,2.07
2018-11-13T20:52:16.331Z,2.43
2018-11-13T20:54:47.221Z,2.13
2018-11-13T20:57:18.008Z,2.00
2018-11-13T20:59:48.941Z,1.80
2018-11-13T21:02:19.867Z,2.50
2018-11-13T21:04:50.982Z,2.43
2018-11-13T21:07:21.849Z,1.97
2018-11-13T21:09:53.216Z,2.50
2018-11-13T21:12:23.902Z,1.77
2018-11-13T21:14:55.286Z,2.00
2018-11-13T21:17:26.701Z,1.63
2018-11-13T21:19:58.323Z,2.07
2018-11-13T21:22:29.050Z,2.53
2018-11-13T21:24:59.859Z,2.00
2018-11-13T21:27:31.306Z,1.90
2018-11-13T21:30:02.462Z,2.07
2018-11-13T21:32:33.491Z,2.50
2018-11-13T21:35:04.543Z,1.93
2018-11-13T21:37:35.437Z,2.70
2018-11-13T21:40:07.791Z,2.17
2018-11-13T21:42:38.695Z,2.40
2018-11-13T21:45:11.337Z,1.93
2018-11-13T21:47:42.662Z,2.33
2018-11-13T21:50:16.173Z,2.17
2018-11-13T21:52:47.082Z,2.30
2018-11-13T21:55:19.735Z,2.23
2018-11-13T21:57:51.145Z,2.30
2018-11-13T22:00:28.543Z,2.37
2018-11-13T22:03:05.004Z,2.20
2018-11-13T22:05:37.132Z,2.43
2018-11-13T22:08:08.155Z,2.80
2018-11-13T22:10:39.330Z,2.83
2018-11-13T22:13:10.176Z,2.43
2018-11-13T22:15:41.130Z,2.50
2018-11-13T22:18:12.016Z,2.40
2018-11-13T22:20:43.622Z,2.67
2018-11-13T22:23:13.956Z,2.60
2018-11-13T22:25:45.481Z,2.80
2018-11-13T22:28:16.280Z,2.77
2018-11-13T22:30:47.165Z,2.57
2018-11-13T22:33:18.061Z,2.43
2018-11-13T22:35:48.858Z,2.67
2018-11-13T22:38:19.813Z,2.87
2018-11-13T22:40:50.835Z,2.77
2018-11-13T22:43:21.795Z,2.53
2018-11-13T22:45:59.090Z,2.33
2018-11-13T22:48:30.257Z,2.40
2018-11-13T22:51:01.283Z,2.30
2018-11-13T22:53:32.262Z,2.53
2018-11-13T22:56:09.596Z,2.80
2018-11-13T22:58:40.717Z,2.73
2018-11-13T23:01:11.953Z,2.50
2018-11-13T23:03:43.101Z,2.40
2018-11-13T23:06:13.506Z,2.60
2018-11-13T23:08:44.552Z,2.70
2018-11-13T23:11:16.011Z,2.47
2018-11-13T23:13:46.937Z,2.27
2018-11-13T23:16:17.677Z,2.40
2018-11-13T23:18:48.381Z,2.37
2018-11-13T23:21:19.117Z,2.53
2018-11-13T23:23:58.222Z,2.50
2018-11-13T23:26:29.064Z,2.80
2018-11-13T23:29:00.334Z,2.33
2018-11-13T23:31:31.430Z,2.40
2018-11-13T23:34:02.243Z,2.83
2018-11-13T23:36:33.145Z,2.60
2018-11-13T23:39:04.968Z,2.90
2018-11-13T23:41:36.001Z,2.30
2018-11-13T23:44:06.985Z,2.60
2018-11-13T23:46:37.879Z,2.50
2018-11-13T23:49:08.813Z,2.70
2018-11-13T23:51:39.269Z,3.13
2018-11-13T23:54:09.963Z,2.77
2018-11-13T23:56:40.724Z,2.57
2018-11-13T23:59:11.455Z,2.90
